Tropical Cyclones
[Index]
Main Index Home Page Stock Weather Photos Extreme Storms Discussion Storm News and Storm Chasing Reports Tropical Cyclones / Hurricanes / Typhoons Weather Data and Links Wild Fires / Bushfires Weather Observation Techniques Weather Picture Catalogue Tornado Pictures and Reports Stock Video Footage and DVDs for sale
Season 1998-1999 Tropical Cyclone CORA Track Map
Season 1998-1999 Summaries: [BoM-AU] [JTWC-AU] [JTWC-SIO] [JTWC-SPAC] [JTWC-SH]
<<- Previous TC | JTWC 1998-1999 Season | Next TC ->>

click for intensity scale information  Lat/long Grid: Show Hide

 Date Labels: Show Hide

Joint Typhoon Warning Centre Cyclone Data

Name: CORA

22 Dec 1998 00:00 UTC to 28 Dec 1998 18:00 UTC

    date/time    lat    long     hPa   cat  kts
1998-12-22 00   13.7   175.0W                 25          
1998-12-22 06   13.8   175.7W                 25          
1998-12-22 12   13.9   176.3W                 25          
1998-12-22 18   13.9   177.0W                 25          
1998-12-23 00   14.0   177.5W                 25          
1998-12-23 06   14.1   178.0W                 30          
1998-12-23 12   14.2   178.4W                 35          
1998-12-23 18   14.5   178.6W           1     40          
1998-12-24 00   15.0   178.5W           1     45          
1998-12-24 06   15.5   178.2W           2     60          
1998-12-24 12   16.2   177.9W           2     65          
1998-12-24 18   16.9   177.5W           3     75          
1998-12-25 00   17.6   177.2W           3     75          
1998-12-25 06   18.3   176.7W           3     75          
1998-12-25 12   19.1   176.2W           3     75          
1998-12-25 18   19.9   175.6W           3     90          
1998-12-26 00   20.7   174.9W           3     90          
1998-12-26 06   21.4   173.9W           3     90          
1998-12-26 12   22.2   172.4W           3     90          
1998-12-26 18   23.1   170.7W           3     85          
1998-12-27 00   24.0   168.7W           3     85          
1998-12-27 06   24.5   166.3W           3     85          
1998-12-27 12   25.4   163.4W           3     85          
1998-12-27 18   26.1   161.1W           3     75          
1998-12-28 00   27.0   158.5W           1     45          
1998-12-28 06   28.5   156.1W                 35          
1998-12-28 12   30.0   153.6W                 25          
1998-12-28 18   32.3   151.0W                 25          
Winds are 1-min average.

Tropical cyclone tracks developed by Michael Bath using data from the Joint Typhoon Warning Centre Best Tracks and Google Maps.


[Australian Severe Weather index] [Copyright Notice] [Email Contacts] [Search This Site] [Privacy Policy]
Document: tropical_cyclone_cora.htm Updated: 18 September 2016